createdAt,value
2023-01-12T00:00:06.090Z,7.85
2023-01-12T00:01:15.552Z,7.85
2023-01-12T00:02:20.110Z,7.83
2023-01-12T00:03:22.623Z,7.77
2023-01-12T00:04:25.026Z,7.78
2023-01-12T00:05:27.487Z,7.86
2023-01-12T00:06:29.913Z,7.82
2023-01-12T00:07:33.433Z,7.86
2023-01-12T00:08:35.765Z,7.85
2023-01-12T00:09:38.738Z,7.81
2023-01-12T00:10:41.171Z,7.74
2023-01-12T00:11:43.336Z,7.77
2023-01-12T00:12:45.792Z,7.78
2023-01-12T00:13:48.395Z,7.78
2023-01-12T00:14:51.882Z,7.78
2023-01-12T00:16:21.273Z,7.84
2023-01-12T00:17:23.499Z,7.81
2023-01-12T00:18:26.156Z,7.78
2023-01-12T00:19:28.389Z,7.70
2023-01-12T00:20:30.558Z,7.66
2023-01-12T00:21:40.159Z,7.63
2023-01-12T00:22:42.312Z,7.64
2023-01-12T00:23:44.888Z,7.57
2023-01-12T00:24:49.570Z,7.64
2023-01-12T00:25:52.924Z,7.70
2023-01-12T00:26:56.788Z,7.71
2023-01-12T00:27:58.959Z,7.69
2023-01-12T00:29:01.387Z,7.64
2023-01-12T00:30:03.719Z,7.52
2023-01-12T00:31:08.198Z,7.55
2023-01-12T00:32:16.415Z,7.65
2023-01-12T00:33:20.169Z,7.72
2023-01-12T00:34:23.160Z,7.67
2023-01-12T00:35:25.354Z,7.64
2023-01-12T00:36:27.646Z,7.67
2023-01-12T00:37:29.834Z,7.64
2023-01-12T00:38:34.049Z,7.71
2023-01-12T00:39:43.074Z,7.63
2023-01-12T00:40:48.015Z,7.68
2023-01-12T00:42:08.990Z,7.63
2023-01-12T00:43:30.115Z,7.60
2023-01-12T00:44:50.890Z,7.64
2023-01-12T00:45:53.109Z,7.53
2023-01-12T00:46:55.338Z,7.58
2023-01-12T00:47:57.489Z,7.59
2023-01-12T00:48:59.855Z,7.56
2023-01-12T00:50:02.242Z,7.58
2023-01-12T00:51:04.705Z,7.60
2023-01-12T00:52:11.383Z,7.63
2023-01-12T00:53:15.439Z,7.60
2023-01-12T00:54:17.655Z,7.55
2023-01-12T00:55:20.130Z,7.59
2023-01-12T00:56:22.354Z,7.59
2023-01-12T00:57:24.993Z,7.51
2023-01-12T00:58:28.743Z,7.50
2023-01-12T00:59:31.078Z,7.51
2023-01-12T01:00:33.613Z,7.45
2023-01-12T01:01:36.025Z,7.45
2023-01-12T01:02:38.641Z,7.47
2023-01-12T01:03:40.825Z,7.49
2023-01-12T01:04:43.028Z,7.53
2023-01-12T01:05:45.582Z,7.47
2023-01-12T01:06:47.776Z,7.40
2023-01-12T01:07:49.980Z,7.38
2023-01-12T01:08:52.493Z,7.31
2023-01-12T01:09:54.722Z,7.32
2023-01-12T01:11:05.659Z,7.33
2023-01-12T01:12:07.987Z,7.32
2023-01-12T01:13:10.252Z,7.34
2023-01-12T01:14:12.831Z,7.36
2023-01-12T01:15:15.076Z,7.39
2023-01-12T01:16:18.396Z,7.39
2023-01-12T01:17:20.746Z,7.37
2023-01-12T01:18:22.937Z,7.43
2023-01-12T01:19:25.587Z,7.38
2023-01-12T01:20:28.027Z,7.30
2023-01-12T01:21:30.657Z,7.24
2023-01-12T01:22:32.821Z,7.23
2023-01-12T01:23:37.079Z,7.28
2023-01-12T01:24:39.606Z,7.30
2023-01-12T01:25:41.974Z,7.32
2023-01-12T01:26:44.244Z,7.35
2023-01-12T01:27:46.649Z,7.41
2023-01-12T01:28:49.225Z,7.39
2023-01-12T01:29:51.593Z,7.41
2023-01-12T01:30:53.969Z,7.42
2023-01-12T01:31:56.180Z,7.33
2023-01-12T01:32:58.598Z,7.29
2023-01-12T01:34:00.800Z,7.31
2023-01-12T01:35:02.989Z,7.36
2023-01-12T01:36:05.768Z,7.31
2023-01-12T01:37:07.939Z,7.32
2023-01-12T01:38:10.347Z,7.25
2023-01-12T01:39:12.511Z,7.27
2023-01-12T01:40:15.057Z,7.18
2023-01-12T01:41:20.651Z,7.23
2023-01-12T01:42:30.158Z,7.26
2023-01-12T01:43:48.719Z,7.17
2023-01-12T01:44:53.452Z,7.10
2023-01-12T01:46:05.126Z,7.13
2023-01-12T01:47:19.323Z,7.15
2023-01-12T01:48:22.993Z,7.15
2023-01-12T01:49:37.107Z,7.15
2023-01-12T01:50:42.871Z,7.11
2023-01-12T01:51:46.569Z,7.04
2023-01-12T01:52:59.029Z,7.02
2023-01-12T01:54:03.092Z,7.03
2023-01-12T01:55:16.103Z,7.07
2023-01-12T01:56:28.033Z,7.04
2023-01-12T01:57:43.728Z,7.04
2023-01-12T01:59:01.073Z,7.03
2023-01-12T02:00:06.310Z,6.93
2023-01-12T02:01:09.676Z,7.00
2023-01-12T02:02:12.665Z,6.98
2023-01-12T02:03:16.658Z,6.98
2023-01-12T02:04:18.892Z,7.00
2023-01-12T02:05:24.813Z,6.98
2023-01-12T02:06:27.859Z,7.00
2023-01-12T02:07:30.502Z,6.94
2023-01-12T02:08:49.340Z,6.94
2023-01-12T02:09:51.583Z,6.94
2023-01-12T02:10:56.487Z,6.96
2023-01-12T02:12:17.459Z,6.97
2023-01-12T02:13:37.848Z,7.00
2023-01-12T02:15:05.122Z,7.02
2023-01-12T02:16:22.904Z,7.04
2023-01-12T02:18:02.449Z,7.06
2023-01-12T02:19:32.773Z,6.95
2023-01-12T02:21:03.188Z,6.89
2023-01-12T02:22:28.197Z,6.81
2023-01-12T02:24:02.707Z,6.78
2023-01-12T02:25:55.171Z,6.90
2023-01-12T02:27:18.696Z,6.88
2023-01-12T02:28:35.640Z,6.84
2023-01-12T02:29:55.754Z,6.73
2023-01-12T02:31:16.572Z,6.81
2023-01-12T02:32:24.832Z,6.86
2023-01-12T02:33:59.211Z,6.76
2023-01-12T02:35:30.758Z,6.72
2023-01-12T02:36:59.201Z,6.71
2023-01-12T02:38:33.631Z,6.70
2023-01-12T02:40:00.512Z,6.74
2023-01-12T02:41:50.397Z,6.73
2023-01-12T02:43:14.987Z,6.83
2023-01-12T02:44:33.551Z,6.85
2023-01-12T02:45:47.619Z,6.86
2023-01-12T02:46:52.095Z,6.80
2023-01-12T02:48:06.193Z,6.70
2023-01-12T02:49:14.919Z,6.67
2023-01-12T02:50:29.097Z,6.71
2023-01-12T02:51:46.094Z,6.69
2023-01-12T02:52:55.300Z,6.69
2023-01-12T02:54:06.123Z,6.71
2023-01-12T02:55:10.492Z,6.71
2023-01-12T02:56:18.608Z,6.74
2023-01-12T02:57:23.688Z,6.67
2023-01-12T02:58:29.518Z,6.69
2023-01-12T02:59:34.952Z,6.67
2023-01-12T03:00:39.004Z,6.71
2023-01-12T03:01:42.902Z,6.71
2023-01-12T03:02:45.198Z,6.71
2023-01-12T03:03:49.956Z,6.74
2023-01-12T03:04:53.184Z,6.76
2023-01-12T03:05:59.960Z,6.74
2023-01-12T03:07:02.050Z,6.82
2023-01-12T03:08:05.643Z,6.83
2023-01-12T03:09:08.708Z,6.78
2023-01-12T03:10:16.982Z,6.83
2023-01-12T03:11:22.822Z,6.77
2023-01-12T03:12:32.559Z,6.70
2023-01-12T03:13:39.798Z,6.77
2023-01-12T03:14:47.921Z,6.77
2023-01-12T03:15:54.138Z,6.71
2023-01-12T03:16:56.970Z,6.77
2023-01-12T03:18:03.598Z,6.86
2023-01-12T03:19:09.873Z,6.88
2023-01-12T03:20:15.888Z,6.83
2023-01-12T03:21:30.448Z,6.81
2023-01-12T03:22:36.500Z,6.84
2023-01-12T03:23:47.767Z,6.87
2023-01-12T03:25:02.366Z,6.84
2023-01-12T03:26:07.738Z,6.85
2023-01-12T03:27:26.418Z,6.86
2023-01-12T03:28:34.459Z,6.84
2023-01-12T03:29:58.921Z,6.87
2023-01-12T03:31:09.034Z,6.83
2023-01-12T03:32:11.802Z,6.82
2023-01-12T03:33:13.972Z,6.82
2023-01-12T03:34:16.349Z,6.80
2023-01-12T03:35:24.255Z,6.84
2023-01-12T03:36:41.864Z,6.79
2023-01-12T03:38:30.413Z,6.77
2023-01-12T03:39:48.655Z,6.72
2023-01-12T03:41:02.743Z,6.76
2023-01-12T03:42:07.972Z,6.69
2023-01-12T03:43:15.369Z,6.65
2023-01-12T03:44:28.756Z,6.76
2023-01-12T03:45:49.217Z,6.86
2023-01-12T03:46:58.082Z,6.85
2023-01-12T03:48:09.459Z,6.87
2023-01-12T03:49:18.997Z,6.90
2023-01-12T03:50:27.358Z,6.91
2023-01-12T03:51:37.163Z,6.88
2023-01-12T03:52:43.010Z,6.86
2023-01-12T03:53:49.615Z,6.84
2023-01-12T03:54:56.800Z,6.87
2023-01-12T03:56:04.450Z,6.85
2023-01-12T03:57:09.225Z,6.94
2023-01-12T03:58:11.652Z,6.95
2023-01-12T03:59:14.532Z,7.04
2023-01-12T04:00:19.251Z,7.11
2023-01-12T04:01:21.920Z,7.13
2023-01-12T04:02:24.291Z,7.21
2023-01-12T04:03:26.514Z,7.24
2023-01-12T04:04:29.130Z,7.26
2023-01-12T04:05:31.509Z,7.17
2023-01-12T04:06:33.673Z,7.15
2023-01-12T04:07:35.812Z,7.16
2023-01-12T04:08:37.997Z,7.16
2023-01-12T04:09:40.345Z,7.18
2023-01-12T04:10:42.856Z,7.27
2023-01-12T04:12:03.801Z,7.30
2023-01-12T04:13:06.198Z,7.36
2023-01-12T04:14:08.360Z,7.37
2023-01-12T04:15:10.969Z,7.45
2023-01-12T04:16:13.685Z,7.46
2023-01-12T04:17:16.506Z,7.45
2023-01-12T04:18:18.656Z,7.49
2023-01-12T04:19:20.798Z,7.49
2023-01-12T04:20:23.511Z,7.52
2023-01-12T04:21:43.904Z,7.57
2023-01-12T04:22:46.774Z,7.62
2023-01-12T04:23:48.933Z,7.65
2023-01-12T04:24:51.155Z,7.68
2023-01-12T04:25:53.767Z,7.72
2023-01-12T04:26:55.931Z,7.68
2023-01-12T04:28:02.681Z,7.78
2023-01-12T04:29:05.221Z,7.78
2023-01-12T04:30:08.187Z,7.86
2023-01-12T04:31:10.865Z,7.84
2023-01-12T04:32:13.055Z,7.84
2023-01-12T04:33:15.270Z,7.77
2023-01-12T04:34:17.659Z,7.78
2023-01-12T04:35:19.867Z,7.83
2023-01-12T04:36:22.300Z,7.81
2023-01-12T04:37:24.526Z,7.80
2023-01-12T04:38:26.688Z,7.77
2023-01-12T04:39:29.540Z,7.81
2023-01-12T04:40:31.707Z,7.89
2023-01-12T04:41:34.123Z,7.95
2023-01-12T04:42:55.394Z,7.94
2023-01-12T04:43:57.576Z,7.93
2023-01-12T04:44:59.958Z,7.89
2023-01-12T04:46:10.789Z,7.91
2023-01-12T04:47:12.830Z,7.91
2023-01-12T04:48:16.413Z,7.85
2023-01-12T04:49:18.662Z,7.88
2023-01-12T04:50:21.021Z,7.92
2023-01-12T04:51:23.398Z,7.93
2023-01-12T04:52:25.599Z,7.93
2023-01-12T04:53:28.484Z,7.86
2023-01-12T04:54:30.617Z,7.93
2023-01-12T04:55:35.457Z,7.92
2023-01-12T04:56:37.932Z,7.89
2023-01-12T04:57:40.203Z,7.94
2023-01-12T04:58:42.558Z,7.86
2023-01-12T04:59:44.760Z,7.93
2023-01-12T05:00:46.984Z,7.96
2023-01-12T05:01:49.536Z,8.01
2023-01-12T05:02:58.120Z,7.98
2023-01-12T05:04:03.371Z,8.04
2023-01-12T05:05:06.314Z,8.04
2023-01-12T05:06:09.007Z,7.96
2023-01-12T05:07:11.575Z,7.99
2023-01-12T05:08:33.378Z,7.94
2023-01-12T05:09:54.024Z,7.97
2023-01-12T05:10:58.198Z,7.86
2023-01-12T05:12:01.367Z,7.95
2023-01-12T05:13:03.573Z,8.02
2023-01-12T05:14:06.026Z,7.99
2023-01-12T05:15:10.905Z,7.95
2023-01-12T05:16:18.177Z,7.91
2023-01-12T05:17:20.648Z,8.01
2023-01-12T05:18:23.236Z,7.98
2023-01-12T05:19:25.431Z,8.00
2023-01-12T05:20:27.767Z,8.06
2023-01-12T05:21:30.255Z,8.07
2023-01-12T05:22:32.671Z,8.00
2023-01-12T05:23:34.887Z,8.08
2023-01-12T05:24:37.696Z,8.11
2023-01-12T05:25:39.857Z,8.15
2023-01-12T05:26:42.214Z,8.18
2023-01-12T05:27:44.606Z,8.16
2023-01-12T05:28:50.945Z,8.23
2023-01-12T05:29:53.141Z,8.22
2023-01-12T05:30:55.471Z,8.18
2023-01-12T05:31:57.885Z,8.20
2023-01-12T05:33:00.241Z,8.16
2023-01-12T05:34:02.437Z,8.15
2023-01-12T05:35:08.699Z,8.16
2023-01-12T05:36:13.707Z,8.08
2023-01-12T05:37:16.138Z,8.14
2023-01-12T05:38:18.560Z,8.16
2023-01-12T05:39:21.830Z,8.21
2023-01-12T05:40:24.869Z,8.23
2023-01-12T05:41:27.213Z,8.17
2023-01-12T05:42:48.674Z,8.20
2023-01-12T05:43:51.226Z,8.20
2023-01-12T05:44:53.607Z,8.25
2023-01-12T05:45:55.784Z,8.12
2023-01-12T05:46:57.975Z,8.15
2023-01-12T05:48:02.342Z,8.13
2023-01-12T05:49:04.540Z,8.20
2023-01-12T05:50:07.048Z,8.18
2023-01-12T05:51:11.432Z,8.16
2023-01-12T05:52:13.596Z,8.17
2023-01-12T05:53:15.992Z,8.16
2023-01-12T05:54:18.146Z,8.16
2023-01-12T05:55:20.517Z,8.09
2023-01-12T05:56:25.935Z,8.00
2023-01-12T05:57:31.689Z,8.04
2023-01-12T05:58:34.446Z,8.12
2023-01-12T05:59:36.612Z,8.08
2023-01-12T06:00:38.761Z,8.12
2023-01-12T06:01:41.207Z,8.14
2023-01-12T06:02:43.403Z,8.12
2023-01-12T06:03:50.886Z,8.19
2023-01-12T06:04:53.148Z,8.24
2023-01-12T06:05:55.934Z,8.21
2023-01-12T06:06:58.344Z,8.20
2023-01-12T06:08:01.525Z,8.20
2023-01-12T06:09:04.655Z,8.22
2023-01-12T06:10:07.399Z,8.23
2023-01-12T06:11:29.523Z,8.24
2023-01-12T06:12:50.456Z,8.21
2023-01-12T06:13:58.607Z,8.21
2023-01-12T06:15:00.803Z,8.22
2023-01-12T06:16:05.673Z,8.18
2023-01-12T06:17:07.893Z,8.11
2023-01-12T06:18:10.253Z,8.06
2023-01-12T06:19:13.233Z,8.13
2023-01-12T06:20:17.272Z,8.14
2023-01-12T06:21:19.801Z,8.17
2023-01-12T06:22:21.992Z,8.15
2023-01-12T06:23:35.444Z,8.15
2023-01-12T06:24:38.276Z,8.21
2023-01-12T06:25:40.414Z,8.14
2023-01-12T06:26:45.158Z,8.14
2023-01-12T06:27:47.400Z,8.20
2023-01-12T06:28:49.885Z,8.21
2023-01-12T06:29:52.335Z,8.22
2023-01-12T06:30:59.357Z,8.20
2023-01-12T06:32:01.794Z,8.22
2023-01-12T06:33:04.073Z,8.20
2023-01-12T06:34:07.992Z,8.31
2023-01-12T06:35:18.971Z,8.32
2023-01-12T06:36:21.644Z,8.34
2023-01-12T06:37:24.697Z,8.34
2023-01-12T06:38:29.350Z,8.38
2023-01-12T06:39:31.803Z,8.31
2023-01-12T06:40:34.175Z,8.32
2023-01-12T06:41:55.238Z,8.31
2023-01-12T06:42:57.612Z,8.28
2023-01-12T06:44:00.159Z,8.29
2023-01-12T06:45:05.625Z,8.31
2023-01-12T06:46:07.897Z,8.22
2023-01-12T06:47:10.074Z,8.25
2023-01-12T06:48:12.428Z,8.17
2023-01-12T06:49:16.578Z,8.16
2023-01-12T06:50:19.069Z,8.15
2023-01-12T06:51:21.254Z,8.13
2023-01-12T06:52:26.107Z,8.12
2023-01-12T06:53:28.490Z,8.17
2023-01-12T06:54:30.967Z,8.15
2023-01-12T06:55:33.448Z,8.10
2023-01-12T06:56:35.639Z,8.18
2023-01-12T06:57:37.815Z,8.14
2023-01-12T06:58:43.254Z,8.12
2023-01-12T06:59:45.758Z,8.17
2023-01-12T07:00:48.139Z,8.28
2023-01-12T07:01:50.626Z,8.22
2023-01-12T07:02:52.931Z,8.19
2023-01-12T07:03:55.094Z,8.18
2023-01-12T07:04:57.464Z,8.19
2023-01-12T07:06:00.395Z,8.17
2023-01-12T07:07:02.613Z,8.20
2023-01-12T07:08:05.156Z,8.14
2023-01-12T07:09:07.363Z,8.21
2023-01-12T07:10:11.728Z,8.25
2023-01-12T07:11:15.311Z,8.22
2023-01-12T07:12:17.553Z,8.28
2023-01-12T07:13:19.839Z,8.29
2023-01-12T07:14:21.996Z,8.31
2023-01-12T07:15:24.411Z,8.34
2023-01-12T07:16:26.760Z,8.32
2023-01-12T07:17:28.928Z,8.27
2023-01-12T07:18:31.321Z,8.12
2023-01-12T07:19:33.479Z,8.20
2023-01-12T07:20:35.954Z,8.24
2023-01-12T07:21:38.532Z,8.28
2023-01-12T07:22:40.757Z,8.28
2023-01-12T07:23:43.783Z,8.26
2023-01-12T07:24:46.034Z,8.27
2023-01-12T07:25:48.421Z,8.36
2023-01-12T07:26:51.183Z,8.30
2023-01-12T07:27:58.354Z,8.31
2023-01-12T07:29:00.735Z,8.29
2023-01-12T07:30:04.345Z,8.32
2023-01-12T07:31:06.874Z,8.34
2023-01-12T07:32:09.406Z,8.38
2023-01-12T07:33:14.161Z,8.42
2023-01-12T07:34:16.857Z,8.41
2023-01-12T07:35:19.926Z,8.43
2023-01-12T07:36:22.344Z,8.35
2023-01-12T07:37:24.725Z,8.41
2023-01-12T07:38:28.143Z,8.54
2023-01-12T07:39:30.622Z,8.51
2023-01-12T07:40:33.682Z,8.52
2023-01-12T07:41:54.401Z,8.55
2023-01-12T07:43:09.070Z,8.65
2023-01-12T07:44:11.685Z,8.67
2023-01-12T07:45:14.140Z,8.71
2023-01-12T07:46:16.319Z,8.70
2023-01-12T07:47:18.700Z,8.69
2023-01-12T07:48:22.411Z,8.64
2023-01-12T07:49:24.592Z,8.65
2023-01-12T07:50:27.904Z,8.75
2023-01-12T07:51:31.301Z,8.72
2023-01-12T07:52:33.944Z,8.73
2023-01-12T07:53:36.243Z,8.73
2023-01-12T07:54:38.636Z,8.63
2023-01-12T07:55:43.683Z,8.73
2023-01-12T07:56:46.021Z,8.73
2023-01-12T07:57:55.412Z,8.77
2023-01-12T07:58:57.729Z,8.85
2023-01-12T08:00:00.153Z,8.86
2023-01-12T08:01:02.643Z,8.98
2023-01-12T08:02:05.960Z,9.02
2023-01-12T08:03:10.673Z,9.06
2023-01-12T08:04:13.480Z,9.10
2023-01-12T08:05:15.973Z,9.03
2023-01-12T08:06:18.485Z,9.04
2023-01-12T08:07:20.645Z,9.02
2023-01-12T08:08:23.158Z,9.01
2023-01-12T08:09:25.546Z,9.07
2023-01-12T08:10:27.970Z,9.06
2023-01-12T08:11:30.185Z,9.07
2023-01-12T08:12:32.591Z,9.08
2023-01-12T08:13:35.425Z,9.11
2023-01-12T08:14:39.200Z,9.17
2023-01-12T08:15:46.555Z,9.20
2023-01-12T08:16:49.799Z,9.22
2023-01-12T08:17:57.162Z,9.23
2023-01-12T08:19:07.021Z,9.32
2023-01-12T08:20:17.586Z,9.32
2023-01-12T08:21:25.245Z,9.36
2023-01-12T08:22:34.026Z,9.41
2023-01-12T08:23:42.320Z,9.35
2023-01-12T08:24:57.646Z,9.39
2023-01-12T08:26:04.818Z,9.41
2023-01-12T08:27:08.617Z,9.48
2023-01-12T08:28:16.013Z,9.43
2023-01-12T08:29:29.807Z,9.45
2023-01-12T08:30:32.258Z,9.44
2023-01-12T08:31:34.457Z,9.53
2023-01-12T08:32:37.344Z,9.63
2023-01-12T08:33:39.919Z,9.64
2023-01-12T08:34:43.779Z,9.68
2023-01-12T08:35:47.351Z,9.66
2023-01-12T08:36:49.660Z,9.66
2023-01-12T08:37:52.149Z,9.62
2023-01-12T08:38:55.960Z,9.49
2023-01-12T08:39:58.538Z,9.41
2023-01-12T08:41:19.596Z,9.49
2023-01-12T08:42:26.436Z,9.63
2023-01-12T08:43:48.225Z,9.63
2023-01-12T08:44:50.616Z,9.67
2023-01-12T08:45:53.152Z,9.65
2023-01-12T08:46:55.396Z,9.52
2023-01-12T08:47:57.617Z,9.50
2023-01-12T08:49:00.058Z,9.49
2023-01-12T08:50:02.939Z,9.46
2023-01-12T08:51:08.164Z,9.45
2023-01-12T08:52:10.368Z,9.51
2023-01-12T08:53:12.655Z,9.58
2023-01-12T08:54:17.034Z,9.60
2023-01-12T08:55:19.191Z,9.62
2023-01-12T08:56:21.564Z,9.72
2023-01-12T08:57:23.793Z,9.80
2023-01-12T08:58:26.133Z,9.80
2023-01-12T08:59:28.308Z,9.78
2023-01-12T09:00:30.858Z,9.77
2023-01-12T09:01:34.096Z,9.76
2023-01-12T09:02:36.554Z,9.83
2023-01-12T09:03:39.536Z,9.86
2023-01-12T09:04:42.223Z,9.84
2023-01-12T09:05:45.965Z,9.85
2023-01-12T09:06:48.544Z,9.92
2023-01-12T09:07:52.164Z,9.94
2023-01-12T09:08:59.184Z,9.95
2023-01-12T09:10:01.354Z,9.94
2023-01-12T09:11:05.807Z,9.92
2023-01-12T09:12:07.971Z,9.92
2023-01-12T09:13:15.586Z,9.97
2023-01-12T09:14:18.070Z,9.94
2023-01-12T09:15:20.238Z,9.96
2023-01-12T09:16:23.127Z,10.11
2023-01-12T09:17:26.200Z,10.19
2023-01-12T09:18:28.345Z,10.28
2023-01-12T09:19:30.820Z,10.40
2023-01-12T09:20:34.199Z,10.40
2023-01-12T09:21:39.322Z,10.56
2023-01-12T09:22:41.537Z,10.61
2023-01-12T09:23:44.241Z,10.74
2023-01-12T09:24:46.762Z,10.76
2023-01-12T09:25:48.928Z,10.79
2023-01-12T09:26:51.568Z,10.88
2023-01-12T09:27:53.770Z,11.04
2023-01-12T09:28:58.188Z,11.08
2023-01-12T09:30:00.542Z,11.14
2023-01-12T09:31:04.644Z,11.11
2023-01-12T09:32:06.988Z,11.10
2023-01-12T09:33:09.190Z,11.04
2023-01-12T09:34:12.072Z,11.04
2023-01-12T09:35:14.923Z,11.11
2023-01-12T09:36:20.543Z,11.07
2023-01-12T09:37:22.917Z,11.18
2023-01-12T09:38:25.132Z,11.06
2023-01-12T09:39:28.839Z,11.16
2023-01-12T09:40:31.402Z,11.11
2023-01-12T09:41:57.370Z,11.15
2023-01-12T09:43:18.735Z,11.08
2023-01-12T09:44:50.799Z,11.06
2023-01-12T09:46:12.207Z,11.05
2023-01-12T09:47:32.732Z,11.08
2023-01-12T09:48:35.161Z,11.14
2023-01-12T09:49:46.785Z,11.28
2023-01-12T09:51:05.852Z,11.40
2023-01-12T09:52:17.192Z,11.42
2023-01-12T09:53:28.952Z,11.51
2023-01-12T09:54:34.792Z,11.56
2023-01-12T09:55:46.809Z,11.52
2023-01-12T09:57:01.840Z,11.64
2023-01-12T09:58:37.935Z,11.71
2023-01-12T09:59:46.181Z,11.73
2023-01-12T10:00:54.211Z,11.72
2023-01-12T10:01:57.392Z,11.71
2023-01-12T10:03:09.940Z,11.75
2023-01-12T10:04:12.546Z,11.69
2023-01-12T10:05:50.616Z,11.75
2023-01-12T10:06:52.907Z,11.54
2023-01-12T10:07:56.418Z,11.66
2023-01-12T10:09:02.143Z,11.60
2023-01-12T10:10:04.670Z,11.58
2023-01-12T10:11:26.139Z,11.63
2023-01-12T10:12:37.185Z,11.53
2023-01-12T10:14:03.875Z,11.57
2023-01-12T10:15:36.061Z,11.70
2023-01-12T10:16:59.205Z,11.73
2023-01-12T10:18:15.953Z,11.71
2023-01-12T10:19:38.562Z,11.71
2023-01-12T10:20:43.791Z,11.75
2023-01-12T10:21:47.186Z,11.67
2023-01-12T10:22:54.556Z,11.65
2023-01-12T10:23:56.915Z,11.68
2023-01-12T10:24:59.570Z,11.70
2023-01-12T10:26:15.566Z,11.59
2023-01-12T10:27:17.756Z,11.55
2023-01-12T10:28:30.073Z,11.61
2023-01-12T10:29:32.966Z,11.72
2023-01-12T10:30:39.969Z,11.73
2023-01-12T10:31:42.295Z,11.68
2023-01-12T10:32:44.716Z,11.73
2023-01-12T10:34:08.591Z,11.76
2023-01-12T10:35:17.849Z,11.74
2023-01-12T10:36:20.727Z,11.74
2023-01-12T10:37:22.937Z,11.79
2023-01-12T10:38:31.577Z,11.80
2023-01-12T10:39:42.666Z,11.74
2023-01-12T10:41:01.617Z,11.75
2023-01-12T10:42:56.682Z,11.86
2023-01-12T10:43:58.835Z,11.90
2023-01-12T10:45:16.066Z,11.82
2023-01-12T10:46:24.181Z,11.68
2023-01-12T10:47:26.404Z,11.63
2023-01-12T10:48:28.603Z,11.63
2023-01-12T10:49:30.790Z,11.59
2023-01-12T10:50:35.132Z,11.59
2023-01-12T10:51:48.010Z,11.62
2023-01-12T10:52:56.219Z,11.69
2023-01-12T10:54:18.045Z,11.66
2023-01-12T10:55:24.263Z,11.68
2023-01-12T10:56:32.327Z,11.68
2023-01-12T10:57:34.799Z,11.74
2023-01-12T10:58:36.984Z,11.72
2023-01-12T10:59:40.461Z,11.81
2023-01-12T11:00:48.740Z,11.82
2023-01-12T11:02:13.607Z,11.80
2023-01-12T11:03:37.567Z,11.84
2023-01-12T11:04:46.026Z,11.74
2023-01-12T11:05:48.216Z,11.72
2023-01-12T11:07:02.292Z,11.69
2023-01-12T11:08:38.602Z,11.66
2023-01-12T11:09:43.012Z,11.76
2023-01-12T11:10:45.413Z,11.86
2023-01-12T11:11:56.383Z,11.84
2023-01-12T11:13:04.497Z,11.97
2023-01-12T11:14:22.656Z,11.89
2023-01-12T11:15:28.519Z,11.85
2023-01-12T11:16:49.328Z,11.84
2023-01-12T11:18:03.683Z,11.81
2023-01-12T11:19:23.800Z,11.84
2023-01-12T11:20:38.034Z,11.85
2023-01-12T11:21:43.684Z,11.94
2023-01-12T11:22:48.245Z,11.95
2023-01-12T11:23:54.598Z,11.98
2023-01-12T11:25:00.380Z,12.00
2023-01-12T11:26:13.560Z,11.95
2023-01-12T11:27:18.727Z,12.03
2023-01-12T11:28:20.832Z,11.95
2023-01-12T11:29:31.308Z,12.00
2023-01-12T11:30:41.478Z,12.00
2023-01-12T11:31:45.880Z,11.94
2023-01-12T11:32:56.732Z,11.83
2023-01-12T11:34:02.062Z,11.89
2023-01-12T11:35:11.066Z,11.88
2023-01-12T11:36:22.646Z,11.87
2023-01-12T11:37:24.999Z,11.73
2023-01-12T11:38:49.313Z,11.72
2023-01-12T11:40:03.352Z,11.68
2023-01-12T11:41:10.183Z,11.70
2023-01-12T11:42:38.990Z,11.76
2023-01-12T11:44:15.232Z,11.86
2023-01-12T11:45:25.800Z,11.82
2023-01-12T11:46:30.342Z,11.88
2023-01-12T11:47:43.258Z,11.79
2023-01-12T11:49:02.009Z,11.81
2023-01-12T11:50:36.322Z,11.74
2023-01-12T11:51:39.611Z,11.78
2023-01-12T11:52:42.234Z,11.75
2023-01-12T11:53:44.919Z,11.73
2023-01-12T11:54:47.402Z,11.77
2023-01-12T11:56:12.738Z,11.72
2023-01-12T11:57:41.649Z,11.72
2023-01-12T11:58:52.154Z,11.77
2023-01-12T12:00:15.935Z,11.76
2023-01-12T12:01:22.886Z,11.72
2023-01-12T12:02:46.286Z,11.63
2023-01-12T12:04:18.013Z,11.70
2023-01-12T12:05:50.692Z,11.64
2023-01-12T12:07:01.996Z,11.73
2023-01-12T12:08:27.190Z,11.72
2023-01-12T12:09:44.363Z,11.62
2023-01-12T12:10:46.644Z,11.75
2023-01-12T12:12:05.647Z,11.78
2023-01-12T12:13:29.336Z,11.76
2023-01-12T12:14:43.721Z,11.72
2023-01-12T12:16:30.614Z,11.72
2023-01-12T12:17:52.856Z,11.80
2023-01-12T12:19:25.475Z,11.84
2023-01-12T12:20:48.921Z,11.83
2023-01-12T12:22:05.199Z,11.78
2023-01-12T12:23:25.980Z,11.69
2023-01-12T12:25:05.387Z,11.61
2023-01-12T12:26:24.304Z,11.67
2023-01-12T12:27:44.743Z,11.54
2023-01-12T12:29:05.975Z,11.63
2023-01-12T12:30:26.473Z,11.76
2023-01-12T12:31:53.028Z,11.82
2023-01-12T12:33:19.455Z,11.82
2023-01-12T12:34:31.065Z,11.76
2023-01-12T12:35:57.968Z,11.87
2023-01-12T12:37:32.042Z,11.88
2023-01-12T12:39:09.021Z,11.69
2023-01-12T12:40:30.104Z,11.64
2023-01-12T12:41:59.785Z,11.70
2023-01-12T12:43:35.561Z,11.82
2023-01-12T12:45:11.834Z,11.71
2023-01-12T12:46:31.989Z,11.53
2023-01-12T12:47:51.195Z,11.45
2023-01-12T12:49:07.513Z,11.56
2023-01-12T12:50:18.494Z,11.48
2023-01-12T12:51:22.974Z,11.48
2023-01-12T12:52:30.302Z,11.48
2023-01-12T12:53:44.571Z,11.52
2023-01-12T12:54:47.680Z,11.43
2023-01-12T12:55:55.951Z,11.48
2023-01-12T12:56:58.650Z,11.51
2023-01-12T12:58:03.747Z,11.51
2023-01-12T12:59:07.255Z,11.49
2023-01-12T13:00:30.309Z,11.51
2023-01-12T13:01:33.114Z,11.47
2023-01-12T13:02:52.325Z,11.42
2023-01-12T13:03:57.258Z,11.43
2023-01-12T13:05:04.824Z,11.52
2023-01-12T13:06:26.523Z,11.56
2023-01-12T13:07:29.101Z,11.48
2023-01-12T13:08:34.745Z,11.50
2023-01-12T13:09:38.934Z,11.44
2023-01-12T13:10:48.649Z,11.38
2023-01-12T13:12:00.620Z,11.42
2023-01-12T13:13:16.598Z,11.48
2023-01-12T13:14:27.739Z,11.49
2023-01-12T13:15:36.648Z,11.51
2023-01-12T13:16:39.186Z,11.47
2023-01-12T13:17:44.701Z,11.45
2023-01-12T13:18:50.067Z,11.42
2023-01-12T13:20:16.832Z,11.47
2023-01-12T13:21:26.799Z,11.37
2023-01-12T13:22:32.548Z,11.43
2023-01-12T13:23:48.127Z,11.42
2023-01-12T13:24:50.439Z,11.39
2023-01-12T13:25:56.884Z,11.46
2023-01-12T13:27:01.196Z,11.45
2023-01-12T13:28:03.416Z,11.32
2023-01-12T13:29:23.773Z,11.32
2023-01-12T13:30:28.650Z,11.26
2023-01-12T13:31:32.542Z,11.21
2023-01-12T13:32:42.167Z,11.24
2023-01-12T13:33:44.446Z,11.23
2023-01-12T13:34:46.877Z,11.15
2023-01-12T13:35:49.100Z,11.17
2023-01-12T13:37:23.753Z,11.30
2023-01-12T13:38:43.871Z,11.28
2023-01-12T13:39:52.309Z,11.25
2023-01-12T13:41:13.270Z,11.23
2023-01-12T13:42:39.427Z,11.25
2023-01-12T13:43:47.994Z,11.14
2023-01-12T13:44:51.822Z,11.08
2023-01-12T13:46:01.802Z,11.11
2023-01-12T13:47:15.799Z,11.17
2023-01-12T13:48:19.527Z,11.24
2023-01-12T13:49:30.800Z,11.23
2023-01-12T13:50:35.502Z,11.17
2023-01-12T13:51:43.911Z,11.15
2023-01-12T13:52:59.530Z,11.12
2023-01-12T13:54:05.389Z,11.07
2023-01-12T13:55:23.192Z,10.99
2023-01-12T13:56:26.028Z,11.01
2023-01-12T13:57:31.222Z,10.95
2023-01-12T13:58:40.432Z,11.02
2023-01-12T14:00:09.725Z,11.03
2023-01-12T14:01:27.646Z,10.94
2023-01-12T14:02:32.620Z,11.08
2023-01-12T14:03:53.243Z,11.11
2023-01-12T14:05:13.743Z,10.98
2023-01-12T14:06:45.103Z,11.03
2023-01-12T14:08:05.187Z,10.96
2023-01-12T14:09:10.076Z,10.99
2023-01-12T14:10:22.601Z,11.01
2023-01-12T14:11:47.318Z,11.03
2023-01-12T14:13:08.067Z,11.10
2023-01-12T14:14:59.572Z,11.21
2023-01-12T14:16:28.627Z,11.19
2023-01-12T14:17:49.985Z,11.10
2023-01-12T14:18:52.183Z,11.10
2023-01-12T14:19:54.359Z,11.12
2023-01-12T14:20:58.793Z,11.15
2023-01-12T14:22:04.434Z,11.11
2023-01-12T14:23:29.571Z,11.16
2023-01-12T14:24:31.787Z,11.14
2023-01-12T14:25:34.016Z,11.14
2023-01-12T14:26:36.195Z,11.19
2023-01-12T14:27:39.272Z,11.25
2023-01-12T14:28:46.476Z,11.26
2023-01-12T14:29:48.964Z,11.24
2023-01-12T14:30:54.077Z,11.25
2023-01-12T14:31:56.341Z,11.30
2023-01-12T14:32:59.044Z,11.25
2023-01-12T14:34:04.519Z,11.32
2023-01-12T14:35:17.938Z,11.37
2023-01-12T14:36:28.394Z,11.17
2023-01-12T14:37:34.648Z,11.22
2023-01-12T14:38:42.158Z,11.17
2023-01-12T14:39:46.493Z,11.26
2023-01-12T14:41:31.088Z,11.27
2023-01-12T14:42:52.233Z,11.11
2023-01-12T14:44:13.345Z,11.04
2023-01-12T14:45:36.827Z,11.07
2023-01-12T14:46:48.701Z,11.07
2023-01-12T14:47:51.162Z,11.02
2023-01-12T14:49:00.833Z,11.10
2023-01-12T14:50:28.903Z,11.18
2023-01-12T14:51:38.666Z,11.16
2023-01-12T14:52:43.112Z,11.13
2023-01-12T14:53:47.887Z,11.19
2023-01-12T14:54:50.212Z,11.18
2023-01-12T14:55:52.511Z,11.23
2023-01-12T14:57:01.890Z,11.20
2023-01-12T14:58:05.282Z,11.27